Time;durP1;ratioP1;P1;durP2;ratioP2;P2;SDS_P1;SDS_P2;PMS_P1;PMS_P2;Temp;Humidity;BMP_temperature;BMP_pressure;BME280_temperature;BME280_humidity;BME280_pressure;Samples;Min_cycle;Max_cycle;Signal;HPM_P1;HPM_P2
2023/04/13 00:00:34;;;;;;;1.40;0.43;;;;;;;-145.18;100.00;46715.09;6182419;23;20342;-72
2023/04/13 00:03:00;;;;;;;3.43;0.70;;;;;;;-145.18;100.00;46709.22;6182073;23;20326;-72
2023/04/13 00:05:27;;;;;;;2.23;0.60;;;;;;;-145.18;100.00;46707.28;6182508;23;20254;-73
2023/04/13 00:07:52;;;;;;;2.07;0.50;;;;;;;-145.18;100.00;46711.19;6181940;23;20223;-72
2023/04/13 00:10:19;;;;;;;1.93;0.50;;;;;;;-145.18;100.00;46701.41;6182795;23;20235;-72
2023/04/13 00:12:47;;;;;;;3.43;0.63;;;;;;;-145.18;100.00;46709.22;6182204;23;20029;-72
2023/04/13 00:15:20;;;;;;;2.63;0.80;;;;;;;-145.18;100.00;46707.28;6182407;23;20233;-72
2023/04/13 00:17:46;;;;;;;0.77;0.50;;;;;;;-145.18;100.00;46703.38;6181733;23;20233;-72
2023/04/13 00:20:12;;;;;;;4.67;0.97;;;;;;;-145.18;100.00;46703.38;6182186;23;20342;-73
2023/04/13 00:22:39;;;;;;;2.40;0.50;;;;;;;-145.18;100.00;46691.66;6182378;23;20040;-73
2023/04/13 00:25:05;;;;;;;4.33;0.60;;;;;;;-145.18;100.00;46697.50;6182464;23;20059;-72
2023/04/13 00:27:31;;;;;;;1.70;0.60;;;;;;;-145.18;100.00;46691.66;6155884;23;20321;-72
2023/04/13 00:29:56;;;;;;;3.03;0.60;;;;;;;-145.18;100.00;46693.59;6181682;23;20238;-72
2023/04/13 00:32:23;;;;;;;3.83;0.60;;;;;;;-145.18;100.00;46687.75;6182599;23;20013;-72
2023/04/13 00:34:48;;;;;;;1.27;0.80;;;;;;;-145.18;100.00;46697.50;6181980;23;20334;-72
2023/04/13 00:37:14;;;;;;;2.97;0.80;;;;;;;-145.18;100.00;46679.94;6182343;23;20230;-72
2023/04/13 00:39:45;;;;;;;4.53;1.03;;;;;;;-145.18;100.00;46681.88;6182082;23;20017;-72
2023/04/13 00:42:11;;;;;;;2.47;0.97;;;;;;;-145.18;100.00;46689.69;6182367;23;20076;-72
2023/04/13 00:44:37;;;;;;;5.27;1.00;;;;;;;-145.18;100.00;46687.75;6182178;23;20245;-72
2023/04/13 00:47:03;;;;;;;2.63;0.90;;;;;;;-145.18;100.00;46691.66;6181910;23;20609;-73
2023/04/13 00:49:30;;;;;;;1.63;0.70;;;;;;;-145.18;100.00;46685.78;6182473;23;20330;-73
2023/04/13 00:51:56;;;;;;;1.87;1.03;;;;;;;-145.18;100.00;46681.88;6181576;23;20274;-72
2023/04/13 00:54:21;;;;;;;2.10;1.00;;;;;;;-145.18;100.00;46681.88;6182136;23;20684;-72
2023/04/13 00:56:48;;;;;;;2.87;1.30;;;;;;;-145.18;100.00;46685.78;6181627;23;20005;-72
2023/04/13 00:59:14;;;;;;;1.67;1.00;;;;;;;-145.18;100.00;46681.88;6182015;23;20020;-72
2023/04/13 01:01:49;;;;;;;5.40;1.50;;;;;;;-145.18;100.00;46677.97;6181943;23;20693;-72
2023/04/13 01:04:18;;;;;;;7.77;1.57;;;;;;;-145.18;100.00;46681.88;6182219;23;20223;-72
2023/04/13 01:06:52;;;;;;;2.80;1.30;;;;;;;-145.18;100.00;46681.88;6181935;23;20273;-71
2023/04/13 01:09:38;;;;;;;3.30;1.30;;;;;;;-145.18;100.00;46674.06;6155958;23;20570;-71
2023/04/13 01:12:17;;;;;;;4.80;1.40;;;;;;;-145.18;100.00;46681.88;6181976;23;20266;-72
2023/04/13 01:14:53;;;;;;;4.60;1.37;;;;;;;-145.18;100.00;46676.03;6182027;23;20063;-72
2023/04/13 01:17:22;;;;;;;4.40;1.30;;;;;;;-145.18;100.00;46674.06;6182007;23;20277;-71
2023/04/13 01:19:55;;;;;;;4.77;1.50;;;;;;;-145.18;100.00;46676.03;6181290;23;20263;-71
2023/04/13 01:22:27;;;;;;;5.43;1.50;;;;;;;-145.18;100.00;46676.03;6182188;23;20314;-71
2023/04/13 01:25:17;;;;;;;2.97;1.07;;;;;;;-145.18;100.00;46676.03;6181751;23;20227;-72
2023/04/13 01:27:54;;;;;;;3.70;1.40;;;;;;;-145.18;100.00;46681.88;6181715;23;20231;-73
2023/04/13 01:30:21;;;;;;;2.73;1.30;;;;;;;-145.18;100.00;46679.94;6181478;23;20242;-72
2023/04/13 01:32:48;;;;;;;3.57;1.13;;;;;;;-145.18;100.00;46676.03;6181610;23;20235;-72
2023/04/13 01:35:14;;;;;;;1.67;1.07;;;;;;;-145.18;100.00;46685.78;6155545;23;20246;-72
2023/04/13 01:37:43;;;;;;;0.73;0.60;;;;;;;-145.18;100.00;46685.78;6181687;23;20235;-72
2023/04/13 01:40:12;;;;;;;2.10;1.00;;;;;;;-145.18;100.00;46679.94;6181587;23;20259;-72
2023/04/13 01:42:41;;;;;;;4.00;1.40;;;;;;;-145.18;100.00;46685.78;6181892;23;20238;-72
2023/04/13 01:45:13;;;;;;;4.00;1.10;;;;;;;-145.18;100.00;46687.75;6155140;23;20227;-73
2023/04/13 01:47:43;;;;;;;1.77;0.73;;;;;;;-145.18;100.00;46689.69;6181840;23;20660;-73
2023/04/13 01:50:25;;;;;;;4.33;0.83;;;;;;;-145.18;100.00;46681.88;6181557;23;20231;-73
2023/04/13 01:52:59;;;;;;;1.50;0.93;;;;;;;-145.18;100.00;46685.78;6181543;23;20235;-72
2023/04/13 01:55:25;;;;;;;4.70;1.27;;;;;;;-145.18;100.00;46685.78;6181931;23;20227;-72
2023/04/13 01:57:55;;;;;;;4.37;1.20;;;;;;;-145.18;100.00;46687.75;6181646;23;20227;-72
2023/04/13 02:00:21;;;;;;;2.57;0.80;;;;;;;-145.18;100.00;46674.06;6155160;23;20017;-73
2023/04/13 02:02:47;;;;;;;4.37;1.00;;;;;;;-145.18;100.00;46691.66;6148571;23;20271;-71
2023/04/13 02:05:13;;;;;;;3.43;1.07;;;;;;;-145.18;100.00;46683.84;6181876;23;20013;-72
2023/04/13 02:07:40;;;;;;;4.30;1.00;;;;;;;-145.18;100.00;46681.88;6181685;23;20242;-72
2023/04/13 02:10:06;;;;;;;3.40;1.00;;;;;;;-145.18;100.00;46685.78;6181809;23;20009;-72
2023/04/13 02:12:33;;;;;;;1.50;0.90;;;;;;;-145.18;100.00;46683.84;6155268;23;20239;-72
2023/04/13 02:14:59;;;;;;;5.27;1.30;;;;;;;-145.18;100.00;46681.88;6181902;23;20239;-71
2023/04/13 02:17:28;;;;;;;3.10;0.87;;;;;;;-145.18;100.00;46685.78;6182161;23;20223;-72
2023/04/13 02:19:55;;;;;;;5.43;1.33;;;;;;;-145.18;100.00;46685.78;6182252;23;20269;-72
2023/04/13 02:22:21;;;;;;;3.50;1.30;;;;;;;-145.18;100.00;46681.88;6181524;23;20227;-70
2023/04/13 02:24:47;;;;;;;3.40;0.73;;;;;;;-145.18;100.00;46683.84;6182024;23;20370;-70
2023/04/13 02:27:12;;;;;;;4.30;0.90;;;;;;;-145.18;100.00;46681.88;6181647;23;20016;-70
2023/04/13 02:29:38;;;;;;;6.57;2.00;;;;;;;-145.18;100.00;46685.78;6182212;23;20600;-70
2023/04/13 02:32:03;;;;;;;3.47;0.77;;;;;;;-145.18;100.00;46689.69;6181596;23;20005;-70
2023/04/13 02:34:29;;;;;;;2.13;0.67;;;;;;;-145.18;100.00;46676.03;6182027;23;20013;-70
2023/04/13 02:36:54;;;;;;;4.97;0.80;;;;;;;-145.18;100.00;46685.78;6182345;23;20008;-71
2023/04/13 02:39:20;;;;;;;2.87;0.77;;;;;;;-145.18;100.00;46689.69;6181133;23;20375;-70
2023/04/13 02:41:46;;;;;;;4.00;0.77;;;;;;;-145.18;100.00;46685.78;6183240;23;20465;-70
2023/04/13 02:44:11;;;;;;;2.77;0.70;;;;;;;-145.18;100.00;46691.66;6183299;23;20005;-70
2023/04/13 02:46:37;;;;;;;4.00;0.70;;;;;;;-145.18;100.00;46695.56;6183854;23;20238;-70
2023/04/13 02:49:02;;;;;;;4.63;0.83;;;;;;;-145.18;100.00;46687.75;6182985;23;20367;-70
2023/04/13 02:51:27;;;;;;;2.60;0.80;;;;;;;-145.18;100.00;46689.69;6183718;23;20092;-70
2023/04/13 02:53:54;;;;;;;8.03;1.20;;;;;;;-145.18;100.00;46685.78;6183294;23;20016;-70
2023/04/13 02:56:21;;;;;;;5.20;1.30;;;;;;;-145.18;100.00;46681.88;6183570;23;20013;-70
2023/04/13 02:58:46;;;;;;;2.87;0.73;;;;;;;-145.18;100.00;46693.59;6183351;23;20687;-71
2023/04/13 03:01:12;;;;;;;5.33;1.30;;;;;;;-145.18;100.00;46687.75;6182907;23;20226;-70
2023/04/13 03:03:40;;;;;;;4.93;0.60;;;;;;;-145.18;100.00;46683.84;6182941;23;20025;-70
2023/04/13 03:06:06;;;;;;;1.67;0.60;;;;;;;-145.18;100.00;46705.31;6183295;23;20013;-71
2023/04/13 03:08:32;;;;;;;5.97;0.87;;;;;;;-145.18;100.00;46695.56;6183452;23;20239;-71
2023/04/13 03:10:57;;;;;;;1.07;0.43;;;;;;;-145.18;100.00;46703.38;6183506;23;20235;-70
2023/04/13 03:13:23;;;;;;;1.57;0.57;;;;;;;-145.18;100.00;46695.56;6183503;23;20012;-70
2023/04/13 03:15:49;;;;;;;5.03;0.80;;;;;;;-145.18;100.00;46695.56;6183454;23;20076;-70
2023/04/13 03:18:15;;;;;;;8.37;1.30;;;;;;;-145.18;100.00;46691.66;6183034;23;20019;-70
2023/04/13 03:20:40;;;;;;;7.03;0.80;;;;;;;-145.18;100.00;46693.59;6183480;23;20250;-70
2023/04/13 03:23:06;;;;;;;3.47;1.73;;;;;;;-145.18;100.00;46693.59;6156344;23;20009;-70
2023/04/13 03:25:31;;;;;;;2.77;0.80;;;;;;;-145.18;100.00;46703.38;6183533;23;20009;-70
2023/04/13 03:27:56;;;;;;;7.90;1.30;;;;;;;-145.18;100.00;46689.69;6182896;23;20040;-70
2023/04/13 03:30:22;;;;;;;3.27;0.90;;;;;;;-145.18;100.00;46681.88;6183218;23;20009;-70
2023/04/13 03:32:47;;;;;;;7.13;1.10;;;;;;;-145.18;100.00;46695.56;6183182;23;20013;-70
2023/04/13 03:35:12;;;;;;;4.13;1.00;;;;;;;-145.18;100.00;46683.84;6182948;23;20341;-70
2023/04/13 03:37:42;;;;;;;8.57;0.90;;;;;;;-145.18;100.00;46685.78;6182583;23;20005;-70
2023/04/13 03:40:11;;;;;;;2.47;1.00;;;;;;;-145.18;100.00;46691.66;6183237;23;20017;-71
2023/04/13 03:42:37;;;;;;;4.17;0.63;;;;;;;-145.18;100.00;46685.78;6182854;23;20237;-70
2023/04/13 03:45:03;;;;;;;6.13;0.97;;;;;;;-145.18;100.00;46691.66;6182912;23;20235;-70
2023/04/13 03:47:29;;;;;;;4.40;0.60;;;;;;;-145.18;100.00;46683.84;6182776;23;20692;-70
2023/04/13 03:49:55;;;;;;;2.50;0.60;;;;;;;-145.18;100.00;46691.66;6183205;23;20237;-70
2023/04/13 03:52:20;;;;;;;1.83;0.67;;;;;;;-145.18;100.00;46691.66;6182014;23;20450;-70
2023/04/13 03:54:46;;;;;;;5.60;0.90;;;;;;;-145.18;100.00;46687.75;6183262;23;20094;-70
2023/04/13 03:57:11;;;;;;;2.13;0.70;;;;;;;-145.18;100.00;46705.31;6182703;23;20005;-70
2023/04/13 03:59:37;;;;;;;4.20;0.90;;;;;;;-145.18;100.00;46695.56;6183363;23;20017;-70
2023/04/13 04:02:02;;;;;;;4.63;0.77;;;;;;;-145.18;100.00;46689.69;6182439;23;20063;-70
2023/04/13 04:04:27;;;;;;;2.97;0.50;;;;;;;-145.18;100.00;46703.38;6174430;23;20362;-70
2023/04/13 04:06:53;;;;;;;4.77;0.70;;;;;;;-145.18;100.00;46693.59;6182817;23;20088;-70
2023/04/13 04:09:18;;;;;;;2.90;0.60;;;;;;;-145.18;100.00;46701.41;6182441;23;20008;-70
2023/04/13 04:11:44;;;;;;;3.60;1.73;;;;;;;-145.18;100.00;46691.66;6176764;23;20319;-70
2023/04/13 04:14:09;;;;;;;4.70;0.70;;;;;;;-145.18;100.00;46705.31;6182292;23;20020;-70
2023/04/13 04:16:35;;;;;;;2.17;0.60;;;;;;;-145.18;100.00;46707.28;6182743;23;20059;-70
2023/04/13 04:19:01;;;;;;;5.13;0.70;;;;;;;-145.18;100.00;46703.38;6181959;23;20036;-70
2023/04/13 04:21:32;;;;;;;4.20;1.10;;;;;;;-145.18;100.00;46709.22;6182689;23;20009;-70
2023/04/13 04:23:59;;;;;;;6.40;0.90;;;;;;;-145.18;100.00;46707.28;6180751;23;20462;-70
2023/04/13 04:26:25;;;;;;;4.07;0.80;;;;;;;-145.18;100.00;46707.28;6182528;23;20290;-70
2023/04/13 04:28:50;;;;;;;2.57;0.93;;;;;;;-145.18;100.00;46707.28;6182458;23;20294;-70
2023/04/13 04:31:16;;;;;;;3.10;1.00;;;;;;;-145.18;100.00;46707.28;6181927;23;20005;-70
2023/04/13 04:33:43;;;;;;;6.43;1.20;;;;;;;-145.18;100.00;46707.28;6182377;23;20493;-70
2023/04/13 04:36:12;;;;;;;6.40;1.13;;;;;;;-145.18;100.00;46705.31;6182500;23;20219;-70
2023/04/13 04:38:40;;;;;;;3.27;0.83;;;;;;;-145.18;100.00;46709.22;6182328;23;20239;-70
2023/04/13 04:41:07;;;;;;;2.23;0.93;;;;;;;-145.18;100.00;46709.22;6182328;23;20686;-70
2023/04/13 04:43:34;;;;;;;6.97;1.10;;;;;;;-145.18;100.00;46705.31;6180613;23;20744;-70
2023/04/13 04:46:01;;;;;;;9.77;1.00;;;;;;;-145.18;100.00;46709.22;6182302;23;20695;-70
2023/04/13 04:48:30;;;;;;;6.83;1.00;;;;;;;-145.18;100.00;46709.22;6182878;23;20237;-70
2023/04/13 04:50:56;;;;;;;11.87;1.10;;;;;;;-145.18;100.00;46707.28;6181882;23;20306;-70
2023/04/13 04:53:22;;;;;;;3.33;1.13;;;;;;;-145.18;100.00;46705.31;6182376;23;20274;-70
2023/04/13 04:55:48;;;;;;;7.17;0.90;;;;;;;-145.18;100.00;46711.19;6181626;23;20319;-70
2023/04/13 04:58:14;;;;;;;5.80;0.90;;;;;;;-145.18;100.00;46707.28;6181571;23;20055;-70
2023/04/13 05:00:39;;;;;;;4.93;1.13;;;;;;;-145.18;100.00;46705.31;6182201;23;20096;-70
2023/04/13 05:03:06;;;;;;;5.93;0.80;;;;;;;-145.18;100.00;46705.31;6179225;23;20017;-70
2023/04/13 05:05:34;;;;;;;9.17;1.37;;;;;;;-145.18;100.00;46709.22;6182299;23;20025;-70
2023/04/13 05:08:00;;;;;;;4.23;0.80;;;;;;;-145.18;100.00;46703.38;6179941;23;20239;-70
2023/04/13 05:10:27;;;;;;;8.37;1.00;;;;;;;-145.18;100.00;46709.22;6182234;23;20230;-71
2023/04/13 05:12:53;;;;;;;4.03;0.87;;;;;;;-145.18;100.00;46709.22;6181658;23;20012;-70
2023/04/13 05:15:18;;;;;;;3.30;0.70;;;;;;;-145.18;100.00;46707.28;6181965;23;20231;-70
2023/04/13 05:17:45;;;;;;;9.37;1.33;;;;;;;-145.18;100.00;46707.28;6182017;23;20033;-70
2023/04/13 05:20:12;;;;;;;8.10;1.00;;;;;;;-145.18;100.00;46707.28;6181617;23;20009;-71
2023/04/13 05:22:38;;;;;;;6.23;0.90;;;;;;;-145.18;100.00;46707.28;6180755;23;20231;-71
2023/04/13 05:25:05;;;;;;;6.00;0.90;;;;;;;-145.18;100.00;46709.22;6181847;23;20619;-71
2023/04/13 05:27:30;;;;;;;6.83;0.80;;;;;;;-145.18;100.00;46715.09;6182373;23;20009;-71
2023/04/13 05:29:56;;;;;;;4.40;1.00;;;;;;;-145.18;100.00;46711.19;6181704;23;20373;-71
2023/04/13 05:32:21;;;;;;;5.53;2.00;;;;;;;-145.18;100.00;46713.13;6181406;23;20419;-70
2023/04/13 05:34:47;;;;;;;7.37;1.60;;;;;;;-145.18;100.00;46713.13;6181924;23;20009;-71
2023/04/13 05:37:14;;;;;;;2.50;1.20;;;;;;;-145.18;100.00;46707.28;6182058;23;20013;-71
2023/04/13 05:39:39;;;;;;;7.40;1.37;;;;;;;-145.18;100.00;46707.28;6181691;23;20019;-71
2023/04/13 05:42:05;;;;;;;5.53;1.30;;;;;;;-145.18;100.00;46707.28;6180988;23;20226;-71
2023/04/13 05:44:30;;;;;;;3.73;1.17;;;;;;;-145.18;100.00;46707.28;6182148;23;20176;-70
2023/04/13 05:46:55;;;;;;;5.10;0.83;;;;;;;-145.18;100.00;46701.41;6182400;23;20092;-71
2023/04/13 05:49:21;;;;;;;6.53;1.10;;;;;;;-145.18;100.00;46697.50;6181772;23;20422;-71
2023/04/13 05:51:47;;;;;;;3.17;0.90;;;;;;;-145.18;100.00;46693.59;6181990;23;20049;-71
2023/04/13 05:54:12;;;;;;;2.67;0.83;;;;;;;-145.18;100.00;46691.66;6182144;23;20508;-71
2023/04/13 05:56:39;;;;;;;6.27;0.80;;;;;;;-145.18;100.00;46689.69;6182160;23;20009;-71
2023/04/13 05:59:04;;;;;;;1.37;0.70;;;;;;;-145.18;100.00;46689.69;6181622;23;20423;-71
2023/04/13 06:01:30;;;;;;;4.60;0.80;;;;;;;-145.18;100.00;46689.69;6182173;23;20239;-72
2023/04/13 06:03:56;;;;;;;5.33;0.93;;;;;;;-145.18;100.00;46676.03;6181706;23;20366;-71
2023/04/13 06:06:22;;;;;;;3.53;1.53;;;;;;;-145.18;100.00;46683.84;6181906;23;20242;-72
2023/04/13 06:08:48;;;;;;;3.43;1.60;;;;;;;-145.18;100.00;46683.84;6181802;23;20047;-72
2023/04/13 06:11:14;;;;;;;5.27;1.50;;;;;;;-145.18;100.00;46689.69;6181538;23;20354;-72
2023/04/13 06:13:40;;;;;;;6.07;1.50;;;;;;;-145.18;100.00;46685.78;6181635;23;20262;-72
2023/04/13 06:16:07;;;;;;;7.73;1.47;;;;;;;-145.18;100.00;46681.88;6156478;23;20234;-71
2023/04/13 06:18:32;;;;;;;2.47;1.30;;;;;;;-145.18;100.00;46679.94;6183805;23;20227;-71
2023/04/13 06:20:58;;;;;;;4.87;1.10;;;;;;;-145.18;100.00;46677.97;6183785;23;20377;-71
2023/04/13 06:23:24;;;;;;;4.00;1.07;;;;;;;-145.18;100.00;46679.94;6183362;23;20354;-71
2023/04/13 06:25:49;;;;;;;5.17;0.90;;;;;;;-145.18;100.00;46679.94;6183846;23;20013;-71
2023/04/13 06:28:15;;;;;;;4.67;1.10;;;;;;;-145.18;100.00;46676.03;6183343;23;20041;-71
2023/04/13 06:30:41;;;;;;;7.47;1.17;;;;;;;-145.18;100.00;46676.03;6183838;23;20382;-71
2023/04/13 06:33:06;;;;;;;5.20;0.97;;;;;;;-145.18;100.00;46676.03;6183205;23;20323;-71
2023/04/13 06:35:35;;;;;;;8.53;1.17;;;;;;;-145.18;100.00;46681.88;6183610;23;20137;-72
2023/04/13 06:38:01;;;;;;;5.53;1.37;;;;;;;-145.18;100.00;46676.03;6183125;23;20012;-72
2023/04/13 06:40:27;;;;;;;4.70;1.20;;;;;;;-145.18;100.00;46679.94;6181226;23;20278;-72
2023/04/13 06:42:53;;;;;;;6.43;1.30;;;;;;;-145.18;100.00;46687.75;6182522;23;20289;-71
2023/04/13 06:45:20;;;;;;;8.67;2.03;;;;;;;-145.18;100.00;46683.84;6183607;23;20389;-72
2023/04/13 06:47:46;;;;;;;6.40;1.80;;;;;;;-145.18;100.00;46679.94;6155447;23;20231;-72
2023/04/13 06:50:12;;;;;;;7.13;1.43;;;;;;;-145.18;100.00;46681.88;6181725;23;20223;-72
2023/04/13 06:52:44;;;;;;;14.23;2.63;;;;;;;-145.18;100.00;46672.13;6181273;23;20565;-72
2023/04/13 06:55:09;;;;;;;5.27;1.80;;;;;;;-145.18;100.00;46677.97;6156248;23;20230;-72
2023/04/13 06:57:35;;;;;;;10.37;1.37;;;;;;;-145.18;100.00;46672.13;6183141;23;20254;-72
2023/04/13 07:00:00;;;;;;;7.77;1.53;;;;;;;-145.18;100.00;46672.13;6182543;23;20092;-72
2023/04/13 07:02:26;;;;;;;8.00;1.33;;;;;;;-145.18;100.00;46676.03;6182871;23;20102;-72
2023/04/13 07:04:51;;;;;;;13.47;1.87;;;;;;;-145.18;100.00;46677.97;6182297;23;20096;-72
2023/04/13 07:07:17;;;;;;;10.73;1.40;;;;;;;-145.18;100.00;46676.03;6182752;23;20394;-72
2023/04/13 07:09:42;;;;;;;13.17;1.43;;;;;;;-145.18;100.00;46677.97;6183112;23;20028;-72
2023/04/13 07:12:08;;;;;;;10.43;1.73;;;;;;;-145.18;100.00;46677.97;6182590;23;20316;-72
2023/04/13 07:14:34;;;;;;;9.40;1.57;;;;;;;-145.18;100.00;46681.88;6182648;23;20009;-72
2023/04/13 07:17:00;;;;;;;13.77;1.77;;;;;;;-145.18;100.00;46677.97;6183166;23;20009;-72
2023/04/13 07:19:26;;;;;;;8.43;1.30;;;;;;;-145.18;100.00;46681.88;6156370;23;20255;-72
2023/04/13 07:21:51;;;;;;;15.93;1.57;;;;;;;-145.18;100.00;46676.03;6182928;23;20005;-72
2023/04/13 07:24:17;;;;;;;7.53;1.30;;;;;;;-145.18;100.00;46679.94;6182120;23;20001;-72
2023/04/13 07:26:43;;;;;;;15.27;1.27;;;;;;;-145.18;100.00;46679.94;6156650;23;20017;-72
2023/04/13 07:29:12;;;;;;;12.63;1.83;;;;;;;-145.18;100.00;46681.88;6182533;23;20009;-72
2023/04/13 07:31:40;;;;;;;11.33;1.40;;;;;;;-145.18;100.00;46679.94;6182850;23;20073;-72
2023/04/13 07:34:05;;;;;;;6.43;1.30;;;;;;;-145.18;100.00;46662.34;6182350;23;20235;-72
2023/04/13 07:36:31;;;;;;;9.37;1.23;;;;;;;-145.18;100.00;46633.06;6182741;23;20642;-72
2023/04/13 07:38:57;;;;;;;13.20;1.70;;;;;;;-145.18;100.00;46590.06;6182224;23;20438;-72
2023/04/13 07:41:23;;;;;;;16.50;1.87;;;;;;;-145.18;100.00;46562.72;6182252;23;20072;-72
2023/04/13 07:43:49;;;;;;;12.67;2.40;;;;;;;-145.18;100.00;46552.97;6182616;23;20342;-72
2023/04/13 07:46:14;;;;;;;7.73;1.70;;;;;;;-145.18;100.00;46558.81;6182487;23;20331;-72
2023/04/13 07:48:40;;;;;;;11.63;1.80;;;;;;;-145.18;100.00;46560.78;6182344;23;20294;-72
2023/04/13 07:51:14;;;;;;;8.33;2.00;;;;;;;-145.18;100.00;46566.63;6182294;23;20009;-72
2023/04/13 07:53:39;;;;;;;10.27;2.13;;;;;;;-145.18;100.00;46570.53;6157804;23;20258;-72
2023/04/13 07:56:05;;;;;;;9.70;2.17;;;;;;;-145.18;100.00;46586.16;6182216;23;20673;-71
2023/04/13 07:58:31;;;;;;;9.40;1.60;;;;;;;-145.18;100.00;46590.06;6182171;23;20015;-71
2023/04/13 08:00:56;;;;;;;9.77;1.50;;;;;;;-145.18;100.00;46597.88;6182402;23;20330;-71
2023/04/13 08:03:22;;;;;;;13.20;1.60;;;;;;;-145.18;100.00;46621.31;6181650;23;20097;-71
2023/04/13 08:05:47;;;;;;;14.00;2.03;;;;;;;-145.18;100.00;46627.19;6182613;23;20005;-72
2023/04/13 08:08:12;;;;;;;13.10;1.97;;;;;;;-145.18;100.00;46629.13;6181837;23;20043;-71
2023/04/13 08:10:38;;;;;;;10.00;1.93;;;;;;;-145.18;100.00;46627.19;6182290;23;20015;-71
2023/04/13 08:13:03;;;;;;;10.93;1.80;;;;;;;-145.18;100.00;46650.63;6182228;23;20064;-71
2023/04/13 08:15:28;;;;;;;6.00;1.27;;;;;;;-145.18;100.00;46672.13;6182081;23;20044;-71
2023/04/13 08:17:54;;;;;;;16.77;2.07;;;;;;;-145.18;100.00;46666.25;6156239;23;20017;-72
2023/04/13 08:20:20;;;;;;;3.33;1.30;;;;;;;-145.18;100.00;46662.34;6181874;23;20106;-71
2023/04/13 08:22:45;;;;;;;11.87;1.53;;;;;;;-145.18;100.00;46656.50;6182414;23;20139;-71
2023/04/13 08:25:10;;;;;;;8.07;1.40;;;;;;;-145.18;100.00;46648.69;6181440;23;20009;-71
2023/04/13 08:27:36;;;;;;;15.80;2.37;;;;;;;-145.18;100.00;46644.78;6182232;23;20386;-71
2023/04/13 08:30:02;;;;;;;13.77;1.47;;;;;;;-145.18;100.00;46619.38;6181958;23;20168;-71
2023/04/13 08:32:27;;;;;;;9.40;2.10;;;;;;;-145.18;100.00;46619.38;6182242;23;20005;-71
2023/04/13 08:34:53;;;;;;;14.43;2.60;;;;;;;-145.18;100.00;46590.06;6181933;23;20246;-71
2023/04/13 08:37:19;;;;;;;12.43;1.37;;;;;;;-145.18;100.00;46582.25;6181914;23;20035;-71
2023/04/13 08:39:47;;;;;;;9.50;1.93;;;;;;;-145.18;100.00;46582.25;6181532;23;20059;-71
2023/04/13 08:42:12;;;;;;;16.47;1.33;;;;;;;-145.18;100.00;46576.41;6182189;23;20231;-71
2023/04/13 08:44:41;;;;;;;11.53;1.63;;;;;;;-145.18;100.00;46576.41;6180278;23;20672;-72
2023/04/13 08:47:09;;;;;;;7.67;1.43;;;;;;;-145.18;100.00;46576.41;6181905;23;20012;-71
2023/04/13 08:49:37;;;;;;;14.87;1.77;;;;;;;-145.18;100.00;46586.16;6182152;23;20262;-71
2023/04/13 08:52:04;;;;;;;13.03;2.03;;;;;;;-145.18;100.00;46597.88;6181656;23;20223;-71
2023/04/13 08:54:30;;;;;;;7.73;1.47;;;;;;;-145.18;100.00;46592.03;6181876;23;20231;-71
2023/04/13 08:56:56;;;;;;;14.57;1.67;;;;;;;-145.18;100.00;46595.94;6181823;23;20250;-71
2023/04/13 08:59:22;;;;;;;11.00;1.50;;;;;;;-145.18;100.00;46615.47;6181360;23;20012;-71
2023/04/13 09:01:49;;;;;;;12.73;1.43;;;;;;;-145.18;100.00;46609.59;6181825;23;20302;-71
2023/04/13 09:04:19;;;;;;;10.17;1.13;;;;;;;-145.18;100.00;46613.50;6181185;23;20135;-71
2023/04/13 09:06:46;;;;;;;11.10;1.50;;;;;;;-145.18;100.00;46648.69;6181833;23;20231;-71
2023/04/13 09:09:15;;;;;;;15.43;2.20;;;;;;;-145.18;100.00;46660.41;6181537;23;20234;-71
2023/04/13 09:11:42;;;;;;;7.43;1.50;;;;;;;-145.18;100.00;46658.44;6181780;23;20235;-71
2023/04/13 09:14:08;;;;;;;5.83;1.30;;;;;;;-145.18;100.00;46719.00;6181342;23;20703;-71
2023/04/13 09:16:41;;;;;;;7.70;1.27;;;;;;;-145.18;100.00;46746.34;6181969;23;20281;-71
2023/04/13 09:19:07;;;;;;;8.70;1.23;;;;;;;-145.18;100.00;46765.88;6180688;23;20269;-71
2023/04/13 09:21:42;;;;;;;7.73;1.23;;;;;;;-145.18;100.00;46806.91;6155844;23;20227;-71
2023/04/13 09:24:08;;;;;;;15.45;1.40;;;;;;;-145.18;100.00;46812.75;6181176;23;20672;-71
2023/04/13 09:26:47;;;;;;;13.27;1.43;;;;;;;-145.18;100.00;46949.50;6182000;23;20088;-71
2023/04/13 09:29:15;;;;;;;13.57;1.23;;;;;;;-145.18;100.00;47137.03;6181192;23;20245;-71
2023/04/13 09:31:41;;;;;;;5.43;1.53;;;;;;;-145.18;100.00;47117.50;6181717;23;20269;-71
2023/04/13 09:34:07;;;;;;;14.27;1.50;;;;;;;-145.18;100.00;47043.28;6181230;23;20680;-71
2023/04/13 09:36:32;;;;;;;14.50;1.80;;;;;;;-145.18;100.00;46820.56;6181638;23;20084;-71
2023/04/13 09:38:58;;;;;;;10.67;1.80;;;;;;;-145.18;100.00;46787.38;6181192;23;20439;-71
2023/04/13 09:41:34;;;;;;;12.53;1.33;;;;;;;-145.18;100.00;46826.44;6181525;23;20033;-71
2023/04/13 09:44:00;;;;;;;12.10;1.80;;;;;;;-145.18;100.00;46845.97;6181603;23;20127;-71
2023/04/13 09:46:26;;;;;;;10.30;1.20;;;;;;;-145.18;100.00;46926.06;6181491;23;20013;-71
2023/04/13 09:49:02;;;;;;;10.70;1.90;;;;;;;-145.18;100.00;47006.16;6181306;23;20242;-71
2023/04/13 09:51:40;;;;;;;;;;;;;;;-145.18;100.00;46935.81;6182986;23;20009;-71
2023/04/13 09:54:05;;;;;;;6.77;1.50;;;;;;;-145.18;100.00;46883.09;6183249;23;20334;-71
2023/04/13 09:56:45;;;;;;;9.40;1.40;;;;;;;-145.18;100.00;46933.88;6183812;23;20254;-71
2023/04/13 09:59:12;;;;;;;7.63;1.13;;;;;;;-145.18;100.00;46947.53;6183246;23;20099;-71
2023/04/13 10:01:37;;;;;;;10.07;1.03;;;;;;;-145.18;100.00;47053.03;6183527;23;20235;-70
2023/04/13 10:04:05;;;;;;;10.03;1.67;;;;;;;-145.18;100.00;47068.66;6182821;23;20257;-70
2023/04/13 10:06:37;;;;;;;9.47;1.53;;;;;;;-145.18;100.00;47029.59;6183785;23;20013;-70
2023/04/13 10:09:02;;;;;;;13.53;2.03;;;;;;;-145.18;100.00;46920.19;6183880;23;20223;-71
2023/04/13 10:11:29;;;;;;;13.67;1.63;;;;;;;-145.18;100.00;46810.81;6183212;23;20234;-71
2023/04/13 10:14:01;;;;;;;11.07;1.20;;;;;;;-145.18;100.00;46828.38;6183133;23;20008;-70
2023/04/13 10:16:50;;;;;;;9.20;1.63;;;;;;;-145.18;100.00;46789.31;6183661;23;20246;-70
2023/04/13 10:19:19;;;;;;;10.00;1.70;;;;;;;-145.18;100.00;46760.00;6089431;23;20259;-70
2023/04/13 10:21:47;;;;;;;7.90;1.30;;;;;;;-145.18;100.00;46744.38;6183852;23;20227;-71
2023/04/13 10:24:14;;;;;;;8.77;2.30;;;;;;;-145.18;100.00;46758.06;6183331;23;20227;-71
2023/04/13 10:26:40;;;;;;;9.10;1.40;;;;;;;-145.18;100.00;46777.59;6183972;23;20713;-71
2023/04/13 10:29:07;;;;;;;8.13;1.33;;;;;;;-145.18;100.00;46808.84;6183349;23;20669;-71
2023/04/13 10:31:46;;;;;;;14.57;1.30;;;;;;;-145.18;100.00;46867.44;6183843;23;20239;-71
2023/04/13 10:34:28;;;;;;;7.90;1.07;;;;;;;-145.18;100.00;46822.53;6183379;23;20235;-71
2023/04/13 10:36:56;;;;;;;13.27;1.40;;;;;;;-145.18;100.00;46847.91;6183933;23;20285;-71
2023/04/13 10:39:27;;;;;;;7.00;1.47;;;;;;;-145.18;100.00;46924.09;6183367;23;20246;-71
2023/04/13 10:41:59;;;;;;;9.60;1.27;;;;;;;-145.18;100.00;47010.06;6183618;23;20227;-70
2023/04/13 10:44:24;;;;;;;9.83;1.20;;;;;;;-145.18;100.00;47012.00;6183565;23;20263;-71
2023/04/13 10:46:50;;;;;;;12.40;1.27;;;;;;;-145.18;100.00;46963.19;6183507;23;20266;-71
2023/04/13 10:49:16;;;;;;;9.43;1.10;;;;;;;-145.18;100.00;47160.47;6182921;23;20398;-70
2023/04/13 10:51:43;;;;;;;9.67;1.23;;;;;;;-145.18;100.00;47297.22;6183641;23;20009;-70
2023/04/13 10:54:09;;;;;;;8.00;1.17;;;;;;;-145.18;100.00;47492.59;6182559;23;20715;-70
2023/04/13 10:56:35;;;;;;;5.60;1.13;;;;;;;-145.18;100.00;47484.78;6183539;23;20320;-70
2023/04/13 10:59:01;;;;;;;10.60;1.47;;;;;;;-145.18;100.00;47519.97;6183225;23;20263;-70
2023/04/13 11:01:28;;;;;;;11.50;1.47;;;;;;;-145.18;100.00;47492.59;6183055;23;20088;-70
2023/04/13 11:03:55;;;;;;;16.20;1.60;;;;;;;-145.18;100.00;47519.97;6182591;23;20071;-70
2023/04/13 11:06:22;;;;;;;7.10;1.20;;;;;;;-145.18;100.00;47512.16;6183420;23;20278;-70